sensor_id;sensor_type;location;lat;lon;timestamp;pressure;altitude;pressure_sealevel;temperature;humidity
48792;BME280;34587;48.816;9.420;2022-11-25T00:01:55;98748.66;;;12.20;67.21
48792;BME280;34587;48.816;9.420;2022-11-25T00:04:20;98753.00;;;12.20;67.50
48792;BME280;34587;48.816;9.420;2022-11-25T00:06:45;98755.59;;;12.20;67.68
48792;BME280;34587;48.816;9.420;2022-11-25T00:09:11;98756.44;;;12.20;67.68
48792;BME280;34587;48.816;9.420;2022-11-25T00:11:39;98760.78;;;12.20;67.82
48792;BME280;34587;48.816;9.420;2022-11-25T00:14:05;98765.97;;;12.20;67.76
48792;BME280;34587;48.816;9.420;2022-11-25T00:16:30;98763.34;;;12.21;67.43
48792;BME280;34587;48.816;9.420;2022-11-25T00:18:56;98762.47;;;12.21;67.57
48792;BME280;34587;48.816;9.420;2022-11-25T00:21:25;98768.53;;;12.21;67.83
48792;BME280;34587;48.816;9.420;2022-11-25T00:23:52;98757.28;;;12.21;67.93
48792;BME280;34587;48.816;9.420;2022-11-25T00:26:19;98759.88;;;12.21;67.63
48792;BME280;34587;48.816;9.420;2022-11-25T00:28:46;98757.28;;;12.21;67.55
48792;BME280;34587;48.816;9.420;2022-11-25T00:33:38;98752.09;;;12.21;67.34
48792;BME280;34587;48.816;9.420;2022-11-25T00:36:06;98748.69;;;12.19;67.14
48792;BME280;34587;48.816;9.420;2022-11-25T00:38:31;98755.59;;;12.18;67.37
48792;BME280;34587;48.816;9.420;2022-11-25T00:40:57;98759.09;;;12.17;67.19
48792;BME280;34587;48.816;9.420;2022-11-25T00:43:41;98769.53;;;12.16;66.78
48792;BME280;34587;48.816;9.420;2022-11-25T00:46:25;98768.75;;;12.12;66.04
48792;BME280;34587;48.816;9.420;2022-11-25T00:48:51;98767.06;;;12.11;66.29
48792;BME280;34587;48.816;9.420;2022-11-25T00:51:16;98760.16;;;12.08;66.11
48792;BME280;34587;48.816;9.420;2022-11-25T00:53:42;98762.78;;;12.08;66.17
48792;BME280;34587;48.816;9.420;2022-11-25T00:56:07;98766.25;;;12.07;66.15
48792;BME280;34587;48.816;9.420;2022-11-25T00:58:40;98764.50;;;12.09;66.49
48792;BME280;34587;48.816;9.420;2022-11-25T05:17:25;98718.19;;;11.91;66.81
48792;BME280;34587;48.816;9.420;2022-11-25T05:19:51;98731.13;;;11.93;67.48
48792;BME280;34587;48.816;9.420;2022-11-25T05:22:19;98726.78;;;11.93;67.23
48792;BME280;34587;48.816;9.420;2022-11-25T05:24:45;98726.78;;;11.93;67.38
48792;BME280;34587;48.816;9.420;2022-11-25T05:27:11;98733.72;;;11.94;67.11
48792;BME280;34587;48.816;9.420;2022-11-25T05:29:37;98738.91;;;11.94;67.50
48792;BME280;34587;48.816;9.420;2022-11-25T05:32:04;98743.22;;;11.94;67.46
48792;BME280;34587;48.816;9.420;2022-11-25T05:34:29;98729.38;;;11.95;67.68
48792;BME280;34587;48.816;9.420;2022-11-25T05:36:55;98733.66;;;11.96;67.14
48792;BME280;34587;48.816;9.420;2022-11-25T05:39:21;98730.22;;;11.95;67.45
48792;BME280;34587;48.816;9.420;2022-11-25T05:41:47;98729.31;;;11.96;67.35
48792;BME280;34587;48.816;9.420;2022-11-25T05:44:12;98742.31;;;11.96;67.28
48792;BME280;34587;48.816;9.420;2022-11-25T05:46:37;98742.34;;;11.95;67.35
48792;BME280;34587;48.816;9.420;2022-11-25T05:49:03;98738.91;;;11.94;67.27
48792;BME280;34587;48.816;9.420;2022-11-25T05:51:28;98740.59;;;11.95;67.57
48792;BME280;34587;48.816;9.420;2022-11-25T05:53:54;98737.13;;;11.96;67.55
48792;BME280;34587;48.816;9.420;2022-11-25T05:56:20;98741.47;;;11.96;67.71
48792;BME280;34587;48.816;9.420;2022-11-25T05:58:45;98745.81;;;11.95;67.31
48792;BME280;34587;48.816;9.420;2022-11-25T06:01:13;98747.53;;;11.95;67.47
48792;BME280;34587;48.816;9.420;2022-11-25T06:03:39;98745.81;;;11.95;67.85
48792;BME280;34587;48.816;9.420;2022-11-25T06:06:05;98747.50;;;11.96;67.70
48792;BME280;34587;48.816;9.420;2022-11-25T06:08:32;98753.59;;;11.95;67.36
48792;BME280;34587;48.816;9.420;2022-11-25T06:10:57;98760.47;;;11.96;67.70
48792;BME280;34587;48.816;9.420;2022-11-25T06:13:23;98761.38;;;11.95;67.26
48792;BME280;34587;48.816;9.420;2022-11-25T06:15:49;98762.22;;;11.96;67.30
48792;BME280;34587;48.816;9.420;2022-11-25T06:18:15;98768.28;;;11.96;67.90
48792;BME280;34587;48.816;9.420;2022-11-25T06:20:41;98763.94;;;11.97;67.53
48792;BME280;34587;48.816;9.420;2022-11-25T06:23:08;98764.78;;;11.97;67.76
48792;BME280;34587;48.816;9.420;2022-11-25T06:25:34;98766.47;;;11.98;67.83
48792;BME280;34587;48.816;9.420;2022-11-25T06:28:01;98774.28;;;11.98;67.35
48792;BME280;34587;48.816;9.420;2022-11-25T06:30:27;98782.06;;;11.98;67.40
48792;BME280;34587;48.816;9.420;2022-11-25T06:32:53;98782.91;;;11.99;67.65
48792;BME280;34587;48.816;9.420;2022-11-25T06:35:19;98776.88;;;11.98;67.46
48792;BME280;34587;48.816;9.420;2022-11-25T06:37:44;98775.16;;;11.97;67.45
48792;BME280;34587;48.816;9.420;2022-11-25T06:40:10;98778.66;;;11.96;67.22
48792;BME280;34587;48.816;9.420;2022-11-25T06:42:36;98780.41;;;11.96;67.21
48792;BME280;34587;48.816;9.420;2022-11-25T06:45:02;98772.63;;;11.96;67.30
48792;BME280;34587;48.816;9.420;2022-11-25T06:47:27;98796.03;;;11.94;67.29
48792;BME280;34587;48.816;9.420;2022-11-25T06:49:53;98791.69;;;11.93;67.45
48792;BME280;34587;48.816;9.420;2022-11-25T06:52:18;98799.47;;;11.95;67.24
48792;BME280;34587;48.816;9.420;2022-11-25T06:54:43;98806.41;;;11.94;67.30
48792;BME280;34587;48.816;9.420;2022-11-25T06:57:11;98815.06;;;11.93;66.84
48792;BME280;34587;48.816;9.420;2022-11-25T06:59:36;98814.22;;;11.94;67.28
48792;BME280;34587;48.816;9.420;2022-11-25T07:02:02;98809.88;;;11.93;67.24
48792;BME280;34587;48.816;9.420;2022-11-25T07:04:28;98808.19;;;11.92;66.99
48792;BME280;34587;48.816;9.420;2022-11-25T07:06:53;98809.97;;;11.90;66.86
48792;BME280;34587;48.816;9.420;2022-11-25T07:09:18;98809.97;;;11.90;66.71
48792;BME280;34587;48.816;9.420;2022-11-25T07:11:45;98816.91;;;11.88;66.65
48792;BME280;34587;48.816;9.420;2022-11-25T07:14:11;98816.03;;;11.89;66.97
48792;BME280;34587;48.816;9.420;2022-11-25T07:16:40;98809.13;;;11.88;66.53
48792;BME280;34587;48.816;9.420;2022-11-25T07:19:05;98811.78;;;11.87;66.45
48792;BME280;34587;48.816;9.420;2022-11-25T07:21:32;98815.22;;;11.87;66.22
48792;BME280;34587;48.816;9.420;2022-11-25T07:24:00;98820.41;;;11.87;66.92
48792;BME280;34587;48.816;9.420;2022-11-25T07:26:28;98814.31;;;11.88;66.45
48792;BME280;34587;48.816;9.420;2022-11-25T07:28:56;98825.59;;;11.87;66.45
48792;BME280;34587;48.816;9.420;2022-11-25T07:31:28;98835.09;;;11.88;66.99
48792;BME280;34587;48.816;9.420;2022-11-25T07:33:59;98836.00;;;11.87;66.99
48792;BME280;34587;48.816;9.420;2022-11-25T07:36:25;98836.84;;;11.88;67.21
48792;BME280;34587;48.816;9.420;2022-11-25T07:38:51;98840.34;;;11.87;66.55
48792;BME280;34587;48.816;9.420;2022-11-25T07:41:19;98833.41;;;11.87;66.70
48792;BME280;34587;48.816;9.420;2022-11-25T07:43:50;98835.13;;;11.87;67.14
48792;BME280;34587;48.816;9.420;2022-11-25T07:46:25;98832.59;;;11.85;66.77
48792;BME280;34587;48.816;9.420;2022-11-25T07:48:52;98839.53;;;11.83;65.86
48792;BME280;34587;48.816;9.420;2022-11-25T07:51:24;98841.28;;;11.81;65.75
48792;BME280;34587;48.816;9.420;2022-11-25T07:53:51;98850.81;;;11.80;66.27
48792;BME280;34587;48.816;9.420;2022-11-25T07:56:17;98852.53;;;11.81;66.09
48792;BME280;34587;48.816;9.420;2022-11-25T07:58:43;98858.59;;;11.82;66.51
48792;BME280;34587;48.816;9.420;2022-11-25T08:01:10;98851.69;;;11.81;66.60
48792;BME280;34587;48.816;9.420;2022-11-25T08:03:37;98861.16;;;11.83;66.72
48792;BME280;34587;48.816;9.420;2022-11-25T08:06:07;98862.00;;;11.84;67.10
48792;BME280;34587;48.816;9.420;2022-11-25T08:08:34;98859.41;;;11.86;67.44
48792;BME280;34587;48.816;9.420;2022-11-25T08:11:00;98865.44;;;11.86;67.10
48792;BME280;34587;48.816;9.420;2022-11-25T08:13:25;98862.84;;;11.86;67.36
48792;BME280;34587;48.816;9.420;2022-11-25T08:15:51;98868.03;;;11.86;67.35
48792;BME280;34587;48.816;9.420;2022-11-25T08:18:17;98865.44;;;11.86;67.09
48792;BME280;34587;48.816;9.420;2022-11-25T08:20:43;98865.44;;;11.86;67.52
48792;BME280;34587;48.816;9.420;2022-11-25T08:23:08;98864.53;;;11.87;67.59
48792;BME280;34587;48.816;9.420;2022-11-25T08:25:39;98866.25;;;11.88;67.39
48792;BME280;34587;48.816;9.420;2022-11-25T08:28:04;98866.28;;;11.87;67.56
48792;BME280;34587;48.816;9.420;2022-11-25T08:30:29;98867.16;;;11.87;67.82
48792;BME280;34587;48.816;9.420;2022-11-25T08:32:55;98873.19;;;11.88;67.67
48792;BME280;34587;48.816;9.420;2022-11-25T08:35:22;98874.88;;;11.89;68.01
48792;BME280;34587;48.816;9.420;2022-11-25T08:37:47;98867.94;;;11.89;67.58
48792;BME280;34587;48.816;9.420;2022-11-25T08:40:13;98875.75;;;11.89;67.75
48792;BME280;34587;48.816;9.420;2022-11-25T08:42:38;98875.75;;;11.89;67.58
48792;BME280;34587;48.816;9.420;2022-11-25T08:45:05;98879.22;;;11.88;67.91
48792;BME280;34587;48.816;9.420;2022-11-25T08:47:31;98869.69;;;11.89;67.99
48792;BME280;34587;48.816;9.420;2022-11-25T08:49:56;98867.94;;;11.89;67.72
48792;BME280;34587;48.816;9.420;2022-11-25T08:52:22;98853.28;;;11.88;67.35
48792;BME280;34587;48.816;9.420;2022-11-25T08:54:48;98854.13;;;11.89;67.35
48792;BME280;34587;48.816;9.420;2022-11-25T08:57:14;98863.66;;;11.88;67.30
48792;BME280;34587;48.816;9.420;2022-11-25T08:59:39;98858.47;;;11.88;67.71
48792;BME280;34587;48.816;9.420;2022-11-25T09:02:06;98860.25;;;11.86;67.83
48792;BME280;34587;48.816;9.420;2022-11-25T09:04:31;98861.94;;;11.87;67.25
48792;BME280;34587;48.816;9.420;2022-11-25T09:06:58;98873.22;;;11.86;66.51
48792;BME280;34587;48.816;9.420;2022-11-25T09:09:23;98868.94;;;11.85;66.94
48792;BME280;34587;48.816;9.420;2022-11-25T09:11:48;98868.94;;;11.85;67.41
48792;BME280;34587;48.816;9.420;2022-11-25T09:14:14;98867.19;;;11.84;67.44
48792;BME280;34587;48.816;9.420;2022-11-25T09:16:39;98868.94;;;11.85;67.16
48792;BME280;34587;48.816;9.420;2022-11-25T09:19:04;98866.34;;;11.85;67.89
48792;BME280;34587;48.816;9.420;2022-11-25T09:21:31;98870.63;;;11.86;67.75
48792;BME280;34587;48.816;9.420;2022-11-25T09:23:56;98875.81;;;11.86;67.63
48792;BME280;34587;48.816;9.420;2022-11-25T09:26:25;98887.06;;;11.87;67.67
48792;BME280;34587;48.816;9.420;2022-11-25T09:28:50;98887.09;;;11.85;67.41
48792;BME280;34587;48.816;9.420;2022-11-25T09:31:16;98890.50;;;11.87;67.68
48792;BME280;34587;48.816;9.420;2022-11-25T09:33:42;98888.81;;;11.86;67.93
48792;BME280;34587;48.816;9.420;2022-11-25T09:36:08;98896.59;;;11.86;67.60
48792;BME280;34587;48.816;9.420;2022-11-25T09:38:34;98896.59;;;11.86;67.63
48792;BME280;34587;48.816;9.420;2022-11-25T09:44:34;98900.94;;;11.86;68.18
48792;BME280;34587;48.816;9.420;2022-11-25T09:52:50;98907.84;;;11.87;67.71
48792;BME280;34587;48.816;9.420;2022-11-25T09:55:20;98906.97;;;11.86;67.83
48792;BME280;34587;48.816;9.420;2022-11-25T09:58:03;98900.94;;;11.86;68.16
48792;BME280;34587;48.816;9.420;2022-11-25T10:00:40;98901.78;;;11.86;68.03
48792;BME280;34587;48.816;9.420;2022-11-25T10:06:20;98895.69;;;11.87;67.93
48792;BME280;34587;48.816;9.420;2022-11-25T10:08:48;98894.00;;;11.86;67.98
48792;BME280;34587;48.816;9.420;2022-11-25T10:21:43;98896.59;;;11.86;67.93
48792;BME280;34587;48.816;9.420;2022-11-25T10:24:13;98894.91;;;11.85;68.21
48792;BME280;34587;48.816;9.420;2022-11-25T10:26:41;98882.72;;;11.87;68.25
48792;BME280;34587;48.816;9.420;2022-11-25T10:29:21;98893.16;;;11.86;68.57
48792;BME280;34587;48.816;9.420;2022-11-25T10:31:47;98892.31;;;11.85;68.28
48792;BME280;34587;48.816;9.420;2022-11-25T10:34:25;98893.16;;;11.86;68.09
48792;BME280;34587;48.816;9.420;2022-11-25T10:36:54;98889.69;;;11.85;67.69
48792;BME280;34587;48.816;9.420;2022-11-25T10:39:23;98900.09;;;11.85;67.88
48792;BME280;34587;48.816;9.420;2022-11-25T10:44:40;98902.69;;;11.85;67.96
48792;BME280;34587;48.816;9.420;2022-11-25T10:52:50;98896.59;;;11.86;68.30
48792;BME280;34587;48.816;9.420;2022-11-25T10:55:22;98899.19;;;11.86;68.41
48792;BME280;34587;48.816;9.420;2022-11-25T10:57:52;98906.09;;;11.87;68.42
48792;BME280;34587;48.816;9.420;2022-11-25T11:00:34;98901.78;;;11.86;68.54
48792;BME280;34587;48.816;9.420;2022-11-25T11:03:12;98903.50;;;11.87;68.26
48792;BME280;34587;48.816;9.420;2022-11-25T11:05:45;98906.09;;;11.87;68.69
48792;BME280;34587;48.816;9.420;2022-11-25T11:10:36;98909.53;;;11.88;68.47
48792;BME280;34587;48.816;9.420;2022-11-25T11:13:04;98911.28;;;11.87;68.69
48792;BME280;34587;48.816;9.420;2022-11-25T11:15:32;98910.44;;;11.87;68.63
48792;BME280;34587;48.816;9.420;2022-11-25T11:18:14;98903.50;;;11.87;68.73
48792;BME280;34587;48.816;9.420;2022-11-25T11:20:47;98903.50;;;11.87;68.26
48792;BME280;34587;48.816;9.420;2022-11-25T11:23:13;98904.38;;;11.86;68.81
48792;BME280;34587;48.816;9.420;2022-11-25T11:25:41;98912.19;;;11.86;68.80
48792;BME280;34587;48.816;9.420;2022-11-25T11:31:17;98917.38;;;11.86;68.69
48792;BME280;34587;48.816;9.420;2022-11-25T11:40:00;98924.25;;;11.87;69.02
48792;BME280;34587;48.816;9.420;2022-11-25T11:53:14;98946.75;;;11.88;68.84
48792;BME280;34587;48.816;9.420;2022-11-25T11:55:49;98946.75;;;11.88;69.09
48792;BME280;34587;48.816;9.420;2022-11-25T11:59:11;98957.13;;;11.88;69.21
48792;BME280;34587;48.816;9.420;2022-11-25T12:03:43;98967.50;;;11.88;69.21
48792;BME280;34587;48.816;9.420;2022-11-25T12:06:14;98961.47;;;11.88;68.91
48792;BME280;34587;48.816;9.420;2022-11-25T12:08:49;98961.47;;;11.88;68.92
48792;BME280;34587;48.816;9.420;2022-11-25T12:11:22;98957.97;;;11.89;68.96
48792;BME280;34587;48.816;9.420;2022-11-25T12:13:51;98964.91;;;11.88;69.00
48792;BME280;34587;48.816;9.420;2022-11-25T12:19:13;98966.63;;;11.89;68.78
48792;BME280;34587;48.816;9.420;2022-11-25T12:27:08;98976.13;;;11.90;68.71
48792;BME280;34587;48.816;9.420;2022-11-25T12:29:43;98970.94;;;11.90;68.45
48792;BME280;34587;48.816;9.420;2022-11-25T12:40:48;98984.78;;;11.89;68.77
48792;BME280;34587;48.816;9.420;2022-11-25T12:43:34;98974.41;;;11.89;68.84
48792;BME280;34587;48.816;9.420;2022-11-25T12:46:26;98979.59;;;11.89;68.68
48792;BME280;34587;48.816;9.420;2022-11-25T12:48:55;98978.75;;;11.89;68.66
48792;BME280;34587;48.816;9.420;2022-11-25T12:51:45;98985.69;;;11.88;68.76
48792;BME280;34587;48.816;9.420;2022-11-25T12:54:23;98987.38;;;11.89;69.07
48792;BME280;34587;48.816;9.420;2022-11-25T13:05:49;99010.75;;;11.89;69.24
48792;BME280;34587;48.816;9.420;2022-11-25T13:14:05;99021.16;;;11.89;69.10
48792;BME280;34587;48.816;9.420;2022-11-25T13:16:38;99031.53;;;11.89;68.74
48792;BME280;34587;48.816;9.420;2022-11-25T13:19:08;99039.31;;;11.89;68.99
48792;BME280;34587;48.816;9.420;2022-11-25T13:21:57;99044.50;;;11.89;68.93
48792;BME280;34587;48.816;9.420;2022-11-25T13:24:29;99045.41;;;11.88;68.92
48792;BME280;34587;48.816;9.420;2022-11-25T13:26:55;99045.41;;;11.88;68.98
48792;BME280;34587;48.816;9.420;2022-11-25T13:31:59;99054.03;;;11.90;69.07
48792;BME280;34587;48.816;9.420;2022-11-25T13:34:34;99047.09;;;11.89;68.93
48792;BME280;34587;48.816;9.420;2022-11-25T13:37:01;99047.09;;;11.89;69.44
48792;BME280;34587;48.816;9.420;2022-11-25T13:39:46;99060.09;;;11.89;69.42
48792;BME280;34587;48.816;9.420;2022-11-25T13:42:21;99066.16;;;11.90;69.24
48792;BME280;34587;48.816;9.420;2022-11-25T13:44:56;99065.28;;;11.89;69.22
48792;BME280;34587;48.816;9.420;2022-11-25T13:49:56;99066.16;;;11.90;68.71
48792;BME280;34587;48.816;9.420;2022-11-25T13:52:32;99065.28;;;11.91;68.98
48792;BME280;34587;48.816;9.420;2022-11-25T13:55:09;99069.63;;;11.90;69.21
48792;BME280;34587;48.816;9.420;2022-11-25T13:58:20;99070.47;;;11.91;69.48
48792;BME280;34587;48.816;9.420;2022-11-25T14:01:00;99080.84;;;11.91;68.75
48792;BME280;34587;48.816;9.420;2022-11-25T14:08:53;99091.25;;;11.91;68.96
48792;BME280;34587;48.816;9.420;2022-11-25T14:25:43;99110.28;;;11.91;69.12
48792;BME280;34587;48.816;9.420;2022-11-25T14:30:48;99111.16;;;11.90;68.86
48792;BME280;34587;48.816;9.420;2022-11-25T14:33:17;99114.59;;;11.91;68.53
48792;BME280;34587;48.816;9.420;2022-11-25T14:35:51;99116.34;;;11.90;69.07
48792;BME280;34587;48.816;9.420;2022-11-25T14:38:34;99116.34;;;11.90;69.32
48792;BME280;34587;48.816;9.420;2022-11-25T14:41:09;99116.34;;;11.90;69.08
48792;BME280;34587;48.816;9.420;2022-11-25T14:43:40;99121.56;;;11.90;68.90
48792;BME280;34587;48.816;9.420;2022-11-25T14:46:14;99131.94;;;11.90;69.14
48792;BME280;34587;48.816;9.420;2022-11-25T14:48:41;99128.47;;;11.90;69.01
48792;BME280;34587;48.816;9.420;2022-11-25T14:51:12;99130.19;;;11.89;69.18
48792;BME280;34587;48.816;9.420;2022-11-25T14:53:45;99134.53;;;11.90;69.44
48792;BME280;34587;48.816;9.420;2022-11-25T14:56:12;99140.59;;;11.89;69.52
48792;BME280;34587;48.816;9.420;2022-11-25T14:58:50;99142.31;;;11.90;69.39
48792;BME280;34587;48.816;9.420;2022-11-25T15:01:18;99135.38;;;11.89;69.34
48792;BME280;34587;48.816;9.420;2022-11-25T15:03:48;99147.50;;;11.90;69.79
48792;BME280;34587;48.816;9.420;2022-11-25T15:06:14;99144.06;;;11.88;69.35
48792;BME280;34587;48.816;9.420;2022-11-25T15:08:45;99146.66;;;11.90;69.45
48792;BME280;34587;48.816;9.420;2022-11-25T15:11:16;99151.84;;;11.90;69.37
48792;BME280;34587;48.816;9.420;2022-11-25T15:13:45;99155.31;;;11.90;69.40
48792;BME280;34587;48.816;9.420;2022-11-25T15:16:17;99150.97;;;11.89;69.33
48792;BME280;34587;48.816;9.420;2022-11-25T15:18:54;99157.03;;;11.90;69.79
48792;BME280;34587;48.816;9.420;2022-11-25T15:21:26;99163.09;;;11.90;69.47
48792;BME280;34587;48.816;9.420;2022-11-25T15:23:52;99167.44;;;11.90;69.70
48792;BME280;34587;48.816;9.420;2022-11-25T15:26:26;99163.09;;;11.90;69.47
48792;BME280;34587;48.816;9.420;2022-11-25T15:28:54;99166.53;;;11.89;69.40
48792;BME280;34587;48.816;9.420;2022-11-25T15:31:20;99170.88;;;11.90;69.36
48792;BME280;34587;48.816;9.420;2022-11-25T15:33:52;99184.72;;;11.89;69.64
48792;BME280;34587;48.816;9.420;2022-11-25T15:36:21;99186.47;;;11.90;69.51
48792;BME280;34587;48.816;9.420;2022-11-25T15:38:47;99183.00;;;11.90;69.70
48792;BME280;34587;48.816;9.420;2022-11-25T15:41:19;99191.66;;;11.90;69.50
48792;BME280;34587;48.816;9.420;2022-11-25T15:43:48;99199.44;;;11.90;69.83
48792;BME280;34587;48.816;9.420;2022-11-25T15:46:15;99204.63;;;11.90;69.67
48792;BME280;34587;48.816;9.420;2022-11-25T15:48:44;99211.53;;;11.91;69.66
48792;BME280;34587;48.816;9.420;2022-11-25T15:51:27;99215.03;;;11.90;69.83
48792;BME280;34587;48.816;9.420;2022-11-25T15:54:18;99206.34;;;11.91;69.54
48792;BME280;34587;48.816;9.420;2022-11-25T15:56:48;99211.53;;;11.91;69.58
48792;BME280;34587;48.816;9.420;2022-11-25T15:59:47;99210.69;;;11.91;69.17
48792;BME280;34587;48.816;9.420;2022-11-25T16:02:46;99211.53;;;11.91;69.59
48792;BME280;34587;48.816;9.420;2022-11-25T16:13:15;99216.72;;;11.91;69.43
48792;BME280;34587;48.816;9.420;2022-11-25T16:18:41;99221.94;;;11.91;69.76
48792;BME280;34587;48.816;9.420;2022-11-25T16:21:43;99225.41;;;11.90;69.38
48792;BME280;34587;48.816;9.420;2022-11-25T16:26:49;99233.16;;;11.92;69.52
48792;BME280;34587;48.816;9.420;2022-11-25T16:29:36;99242.69;;;11.91;69.53
48792;BME280;34587;48.816;9.420;2022-11-25T16:32:18;99236.66;;;11.91;69.50
48792;BME280;34587;48.816;9.420;2022-11-25T16:34:44;99243.59;;;11.90;69.36
48792;BME280;34587;48.816;9.420;2022-11-25T16:37:10;99238.41;;;11.90;69.29
48792;BME280;34587;48.816;9.420;2022-11-25T16:39:36;99242.69;;;11.91;69.52
48792;BME280;34587;48.816;9.420;2022-11-25T16:42:02;99249.63;;;11.91;69.59
48792;BME280;34587;48.816;9.420;2022-11-25T16:44:30;99251.38;;;11.90;70.01
48792;BME280;34587;48.816;9.420;2022-11-25T16:46:56;99253.09;;;11.91;69.63
48792;BME280;34587;48.816;9.420;2022-11-25T16:49:22;99260.88;;;11.91;69.78
48792;BME280;34587;48.816;9.420;2022-11-25T16:51:48;99253.94;;;11.92;69.38
48792;BME280;34587;48.816;9.420;2022-11-25T16:54:18;99258.28;;;11.91;69.75
48792;BME280;34587;48.816;9.420;2022-11-25T16:56:46;99260.88;;;11.91;69.75
48792;BME280;34587;48.816;9.420;2022-11-25T16:59:18;99258.31;;;11.90;70.14
48792;BME280;34587;48.816;9.420;2022-11-25T17:01:44;99271.25;;;11.91;69.43
48792;BME280;34587;48.816;9.420;2022-11-25T17:04:11;99268.63;;;11.93;69.11
48792;BME280;34587;48.816;9.420;2022-11-25T17:06:37;99270.38;;;11.92;68.94
48792;BME280;34587;48.816;9.420;2022-11-25T17:09:02;99280.75;;;11.92;69.33
48792;BME280;34587;48.816;9.420;2022-11-25T17:11:31;99282.47;;;11.93;69.68
48792;BME280;34587;48.816;9.420;2022-11-25T17:13:59;99288.56;;;11.92;69.73
48792;BME280;34587;48.816;9.420;2022-11-25T17:16:28;99280.75;;;11.92;69.41
48792;BME280;34587;48.816;9.420;2022-11-25T17:18:55;99288.53;;;11.94;69.29
48792;BME280;34587;48.816;9.420;2022-11-25T17:21:22;99291.13;;;11.95;69.25
48792;BME280;34587;48.816;9.420;2022-11-25T17:23:57;99298.91;;;11.95;69.37
48792;BME280;34587;48.816;9.420;2022-11-25T17:26:34;99301.50;;;11.95;69.19
48792;BME280;34587;48.816;9.420;2022-11-25T17:29:00;99304.91;;;11.97;68.59
48792;BME280;34587;48.816;9.420;2022-11-25T17:31:31;99306.63;;;11.98;68.76
48792;BME280;34587;48.816;9.420;2022-11-25T17:33:57;99311.81;;;11.98;68.57
48792;BME280;34587;48.816;9.420;2022-11-25T17:36:23;99315.28;;;12.00;68.50
48792;BME280;34587;48.816;9.420;2022-11-25T17:38:49;99324.81;;;12.00;68.97
48792;BME280;34587;48.816;9.420;2022-11-25T17:41:16;99325.66;;;12.00;69.45
48792;BME280;34587;48.816;9.420;2022-11-25T17:43:43;99327.38;;;12.01;68.96
48792;BME280;34587;48.816;9.420;2022-11-25T17:46:13;99316.13;;;12.01;69.12
48792;BME280;34587;48.816;9.420;2022-11-25T17:48:40;99322.16;;;12.04;69.20
48792;BME280;34587;48.816;9.420;2022-11-25T17:51:09;99333.38;;;12.03;69.15
48792;BME280;34587;48.816;9.420;2022-11-25T17:53:35;99337.75;;;12.01;69.49
48792;BME280;34587;48.816;9.420;2022-11-25T17:56:11;99342.09;;;12.01;69.97
48792;BME280;34587;48.816;9.420;2022-11-25T17:58:40;99348.16;;;12.01;69.17
48792;BME280;34587;48.816;9.420;2022-11-25T18:01:07;99342.97;;;12.01;68.80
48792;BME280;34587;48.816;9.420;2022-11-25T18:03:33;99348.97;;;12.03;69.21
48792;BME280;34587;48.816;9.420;2022-11-25T18:05:58;99353.31;;;12.04;69.31
48792;BME280;34587;48.816;9.420;2022-11-25T18:08:24;99355.06;;;12.02;69.50
48792;BME280;34587;48.816;9.420;2022-11-25T18:10:49;99360.25;;;12.04;69.33
48792;BME280;34587;48.816;9.420;2022-11-25T18:13:15;99372.34;;;12.03;68.78
48792;BME280;34587;48.816;9.420;2022-11-25T18:15:41;99374.09;;;12.04;68.75
48792;BME280;34587;48.816;9.420;2022-11-25T18:18:18;99374.94;;;12.05;69.20
48792;BME280;34587;48.816;9.420;2022-11-25T18:20:45;99378.41;;;12.05;69.41
48792;BME280;34587;48.816;9.420;2022-11-25T18:23:10;99380.13;;;12.05;69.63
48792;BME280;34587;48.816;9.420;2022-11-25T18:25:38;99387.03;;;12.06;69.88
48792;BME280;34587;48.816;9.420;2022-11-25T18:28:04;99391.25;;;12.15;70.28
48792;BME280;34587;48.816;9.420;2022-11-25T18:30:30;99388.59;;;12.18;69.66
48792;BME280;34587;48.816;9.420;2022-11-25T18:32:57;99399.88;;;12.17;69.26
48792;BME280;34587;48.816;9.420;2022-11-25T18:35:28;99398.19;;;12.14;69.74
48792;BME280;34587;48.816;9.420;2022-11-25T18:37:53;99399.97;;;12.11;69.61
48792;BME280;34587;48.816;9.420;2022-11-25T18:40:21;99397.41;;;12.09;68.69
48792;BME280;34587;48.816;9.420;2022-11-25T18:42:48;99406.09;;;12.06;68.81
48792;BME280;34587;48.816;9.420;2022-11-25T18:45:17;99408.69;;;12.06;69.34
48792;BME280;34587;48.816;9.420;2022-11-25T18:47:43;99413.06;;;12.04;69.09
48792;BME280;34587;48.816;9.420;2022-11-25T18:50:14;99417.34;;;12.05;69.47
48792;BME280;34587;48.816;9.420;2022-11-25T18:52:40;99424.28;;;12.03;69.67
48792;BME280;34587;48.816;9.420;2022-11-25T18:55:06;99429.50;;;12.03;69.06
48792;BME280;34587;48.816;9.420;2022-11-25T18:57:31;99426.06;;;12.01;68.92
48792;BME280;34587;48.816;9.420;2022-11-25T18:59:57;99432.09;;;12.03;68.98
48792;BME280;34587;48.816;9.420;2022-11-25T19:02:22;99430.38;;;12.02;69.47
48792;BME280;34587;48.816;9.420;2022-11-25T19:04:47;99434.69;;;12.03;69.15
48792;BME280;34587;48.816;9.420;2022-11-25T19:07:12;99445.06;;;12.03;68.88
48792;BME280;34587;48.816;9.420;2022-11-25T19:09:38;99443.38;;;12.04;69.23
48792;BME280;34587;48.816;9.420;2022-11-25T19:12:04;99445.97;;;12.04;69.18
48792;BME280;34587;48.816;9.420;2022-11-25T19:14:32;99438.13;;;12.05;69.13
48792;BME280;34587;48.816;9.420;2022-11-25T19:17:03;99448.53;;;12.05;69.20
48792;BME280;34587;48.816;9.420;2022-11-25T19:19:30;99449.38;;;12.06;68.92
48792;BME280;34587;48.816;9.420;2022-11-25T19:21:56;99449.38;;;12.06;69.10
48792;BME280;34587;48.816;9.420;2022-11-25T19:24:26;99458.00;;;12.08;68.96
48792;BME280;34587;48.816;9.420;2022-11-25T19:26:53;99463.19;;;12.08;69.02
48792;BME280;34587;48.816;9.420;2022-11-25T19:29:22;99467.53;;;12.07;69.10
48792;BME280;34587;48.816;9.420;2022-11-25T19:31:49;99478.78;;;12.08;69.48
48792;BME280;34587;48.816;9.420;2022-11-25T19:36:49;99488.31;;;12.07;69.33
48792;BME280;34587;48.816;9.420;2022-11-25T19:39:16;99492.63;;;12.08;69.33
48792;BME280;34587;48.816;9.420;2022-11-25T19:41:42;99500.41;;;12.08;69.13